Time;durP1;ratioP1;P1;durP2;ratioP2;P2;SDS_P1;SDS_P2;PMS_P1;PMS_P2;Temp;Humidity;BMP_temperature;BMP_pressure;BME280_temperature;BME280_humidity;BME280_pressure;Samples;Min_cycle;Max_cycle;Signal;HPM_P1;HPM_P2
2022/06/22 00:01:14;;;;;;;;;6.67;6.67;;;;;24.34;41.74;100744.59;5051139;28;45585;-79
2022/06/22 00:03:42;;;;;;;;;9.00;7.00;;;;;24.06;42.03;100690.22;4990478;28;45828;-80
2022/06/22 00:06:30;;;;;;;;;7.67;5.67;;;;;24.21;41.95;100720.50;4988497;28;45578;-78
2022/06/22 00:08:56;;;;;;;;;8.00;7.67;;;;;24.29;42.15;100746.97;4983700;28;47136;-80
2022/06/22 00:11:23;;;;;;;;;6.67;6.33;;;;;24.22;42.20;100750.28;4989593;28;45591;-79
2022/06/22 00:13:52;;;;;;;;;5.67;5.67;;;;;24.09;42.15;100735.34;4988318;28;45646;-79
2022/06/22 00:16:25;;;;;;;;;6.00;5.00;;;;;24.22;42.17;100757.59;4987889;28;45571;-79
2022/06/22 00:18:52;;;;;;;;;5.00;5.00;;;;;24.07;41.98;100721.03;4990345;28;45761;-79
2022/06/22 00:21:25;;;;;;;;;6.00;6.00;;;;;24.16;42.15;100725.53;4986991;28;45925;-79
2022/06/22 00:24:00;;;;;;;;;5.67;5.67;;;;;24.16;41.67;100736.44;4976861;28;45555;-79
2022/06/22 00:26:25;;;;;;;;;7.33;4.00;;;;;24.15;41.79;100740.19;4988766;28;47258;-80
2022/06/22 00:29:16;;;;;;;;;8.33;7.33;;;;;23.97;42.37;100718.38;4988062;28;46140;-79
2022/06/22 00:31:41;;;;;;;;;5.67;5.67;;;;;24.08;42.47;100734.50;4986670;28;45490;-79
2022/06/22 00:34:09;;;;;;;;;4.00;4.00;;;;;24.06;41.98;100732.94;4987806;28;45542;-79
2022/06/22 00:36:36;;;;;;;;;5.33;5.33;;;;;24.02;42.58;100743.28;4986819;28;45920;-79
2022/06/22 00:39:13;;;;;;;;;6.33;6.33;;;;;23.82;42.49;100701.75;4971568;28;47147;-80
2022/06/22 00:41:40;;;;;;;;;4.33;4.33;;;;;23.44;42.09;100637.53;5047835;28;45485;-79
2022/06/22 00:44:11;;;;;;;;;6.00;6.00;;;;;23.97;42.71;100726.53;5051809;28;45452;-78
2022/06/22 00:46:43;;;;;;;;;5.33;5.33;;;;;23.80;42.44;100703.75;5041975;28;45568;-79
2022/06/22 00:49:17;;;;;;;;;5.00;5.00;;;;;23.76;42.71;100689.59;5053603;28;46349;-79
2022/06/22 00:51:43;;;;;;;;;7.00;6.00;;;;;23.88;42.74;100717.47;5051773;28;45436;-79
2022/06/22 00:54:19;;;;;;;;;7.67;6.00;;;;;23.90;42.83;100717.28;5049846;28;45473;-78
2022/06/22 00:56:54;;;;;;;;;5.67;5.67;;;;;23.81;42.36;100713.63;5047943;28;45371;-80
2022/06/22 00:59:26;;;;;;;;;5.00;4.00;;;;;23.88;42.60;100730.19;5052571;28;46902;-79
2022/06/22 01:02:21;;;;;;;;;8.33;7.00;;;;;23.85;42.76;100733.22;5048528;28;45461;-78
2022/06/22 01:04:52;;;;;;;;;7.67;7.00;;;;;23.84;42.76;100735.09;5049799;28;45606;-78
2022/06/22 01:07:41;;;;;;;;;5.67;5.67;;;;;23.81;42.84;100727.22;5050573;28;45570;-79
2022/06/22 01:10:18;;;;;;;;;5.00;5.00;;;;;23.60;42.64;100690.25;5053401;28;46182;-79
2022/06/22 01:12:50;;;;;;;;;6.33;6.33;;;;;23.80;42.70;100720.09;5050919;28;45450;-78
2022/06/22 01:15:37;;;;;;;;;7.67;6.00;;;;;23.78;42.63;100719.38;5052407;28;48670;-79
2022/06/22 01:18:35;;;;;;;;;7.00;6.00;;;;;23.79;42.97;100715.66;5052039;28;45603;-80
2022/06/22 01:21:23;;;;;;;;;2.00;2.00;;;;;23.72;42.93;100709.94;4993643;28;45778;-80
2022/06/22 01:24:26;;;;;;;;;7.67;5.67;;;;;23.76;42.87;100718.66;4994940;28;45570;-78
2022/06/22 01:27:16;;;;;;;;;9.00;8.00;;;;;23.72;42.29;100720.81;4993510;28;45501;-79
2022/06/22 01:29:49;;;;;;;;;7.33;7.33;;;;;23.43;42.87;100679.31;4991585;28;45470;-79
2022/06/22 01:32:19;;;;;;;;;7.00;7.00;;;;;23.70;43.19;100724.72;4993517;28;45573;-80
2022/06/22 01:34:47;;;;;;;;;3.33;3.33;;;;;23.67;42.63;100712.28;4993597;28;45516;-80
2022/06/22 01:37:17;;;;;;;;;6.33;5.33;;;;;23.56;42.25;100693.44;4973643;28;45671;-80
2022/06/22 01:39:42;;;;;;;;;7.67;7.67;;;;;23.47;42.41;100687.03;4995051;28;45886;-79
2022/06/22 01:42:16;;;;;;;;;7.50;7.50;;;;;23.59;42.35;100718.44;4988092;28;46043;-79
2022/06/22 01:44:44;;;;;;;;;7.00;6.00;;;;;23.58;42.66;100713.19;4991669;28;45639;-79
2022/06/22 01:47:17;;;;;;;;;8.67;7.00;;;;;23.27;42.77;100669.97;4993801;28;45476;-79
2022/06/22 01:50:12;;;;;;;;;5.67;5.67;;;;;23.55;42.61;100721.63;4994011;28;45604;-78
2022/06/22 01:52:47;;;;;;;;;8.33;7.00;;;;;23.53;42.62;100719.09;4992633;28;46513;-79
2022/06/22 01:55:32;;;;;;;;;7.00;7.00;;;;;23.49;42.45;100714.94;4991947;28;45522;-80
2022/06/22 01:58:14;;;;;;;;;7.00;7.00;;;;;23.48;43.06;100720.53;5052232;28;45526;-79
2022/06/22 02:00:42;;;;;;;;;9.33;8.33;;;;;23.19;42.35;100686.19;5051567;28;45476;-79
2022/06/22 02:03:17;;;;;;;;;9.00;6.67;;;;;23.11;42.51;100672.50;5036035;28;47086;-78
2022/06/22 02:09:11;;;;;;;;;8.33;6.33;;;;;23.26;43.11;100708.19;4989856;28;45443;-80
2022/06/22 02:11:43;;;;;;;;;9.67;7.67;;;;;23.34;43.09;100728.19;4991938;28;45597;-80
2022/06/22 02:14:16;;;;;;;;;6.33;6.33;;;;;23.32;42.89;100730.22;4990587;28;45521;-80
2022/06/22 02:16:52;;;;;;;;;6.00;6.00;;;;;23.38;42.74;100745.06;4994747;28;45591;-80
2022/06/22 02:19:18;;;;;;;;;9.33;8.00;;;;;23.41;42.84;100750.19;4989151;28;45842;-79
2022/06/22 02:21:49;;;;;;;;;7.33;6.67;;;;;23.39;42.79;100742.19;4991778;28;45471;-80
2022/06/22 02:24:32;;;;;;;;;9.33;8.00;;;;;23.29;43.06;100724.19;4991653;28;47271;-79
2022/06/22 02:27:06;;;;;;;;;6.67;6.33;;;;;23.35;42.66;100732.63;4990885;28;48527;-79
2022/06/22 02:29:38;;;;;;;;;5.00;5.00;;;;;23.33;43.01;100714.75;4989312;28;45505;-79
2022/06/22 02:32:08;;;;;;;;;7.00;7.00;;;;;23.36;42.83;100722.59;4988949;28;45774;-80
2022/06/22 02:34:35;;;;;;;;;7.00;7.00;;;;;23.33;43.07;100714.75;4993065;28;46669;-79
2022/06/22 02:37:05;;;;;;;;;7.67;7.67;;;;;23.30;43.33;100715.06;4990860;28;45802;-80
2022/06/22 02:39:33;;;;;;;;;7.33;7.33;;;;;23.27;43.28;100710.78;4991981;28;45567;-80
2022/06/22 02:44:46;;;;;;;;;7.33;7.33;;;;;23.21;43.62;100699.63;5043701;28;45358;-80
2022/06/22 02:47:29;;;;;;;;;9.00;7.00;;;;;23.21;43.09;100699.63;5046765;28;45421;-81
2022/06/22 02:50:04;;;;;;;;;7.33;7.33;;;;;23.20;43.79;100697.91;5046038;28;45724;-79
2022/06/22 02:52:52;;;;;;;;;7.33;7.33;;;;;22.96;43.49;100685.66;5049268;28;45658;-80
2022/06/22 02:55:22;;;;;;;;;8.33;7.00;;;;;22.81;43.80;100668.16;5048568;28;46696;-80
2022/06/22 02:57:56;;;;;;;;;11.00;9.33;;;;;22.96;43.66;100693.81;5051869;28;47284;-81
2022/06/22 03:00:31;;;;;;;;;8.00;8.00;;;;;22.92;43.33;100690.56;5047097;28;45911;-79
2022/06/22 03:03:04;;;;;;;;;6.00;6.00;;;;;23.02;43.92;100712.31;5037836;28;45538;-80
2022/06/22 03:05:29;;;;;;;;;8.00;6.67;;;;;22.89;44.08;100690.84;5043513;28;48086;-80
2022/06/22 03:07:59;;;;;;;;;8.00;8.00;;;;;22.80;43.63;100660.97;5051642;28;45873;-78
2022/06/22 03:10:52;;;;;;;;;8.00;7.00;;;;;23.04;43.98;100703.97;5053121;28;45583;-79
2022/06/22 03:13:24;;;;;;;;;4.00;4.00;;;;;23.04;44.31;100701.25;5045553;28;45520;-78
2022/06/22 03:15:51;;;;;;;;;8.00;8.00;;;;;22.85;43.84;100664.97;5050885;28;46267;-78
2022/06/22 03:18:23;;;;;;;;;6.67;6.67;;;;;22.86;44.19;100655.81;5051845;28;45411;-79
2022/06/22 03:20:53;;;;;;;;;10.00;9.00;;;;;22.90;43.82;100667.25;5051342;28;45415;-79
2022/06/22 03:23:43;;;;;;;;;9.67;6.00;;;;;22.89;44.21;100665.53;5056080;28;45673;-79
2022/06/22 03:26:14;;;;;;;;;9.00;8.00;;;;;;;;5048604;28;45516;-80
2022/06/22 03:28:49;;;;;;;;;8.00;8.00;;;;;22.92;44.26;100678.81;5052920;28;45560;-80
2022/06/22 03:31:20;;;;;;;;;9.00;8.67;;;;;22.91;43.83;100669.81;5052633;28;45467;-80
2022/06/22 03:34:02;;;;;;;;;8.67;8.00;;;;;22.73;44.01;100638.97;5051427;28;45622;-79
2022/06/22 03:36:51;;;;;;;;;9.00;8.67;;;;;22.87;43.72;100654.78;5047617;28;46354;-79
2022/06/22 03:39:20;;;;;;;;;8.00;7.00;;;;;22.86;44.31;100652.25;4992498;28;45513;-78
2022/06/22 03:41:55;;;;;;;;;7.00;6.00;;;;;22.60;43.97;100628.44;4997945;28;45470;-79
2022/06/22 03:44:27;;;;;;;;;8.67;7.33;;;;;22.65;44.07;100637.00;4991279;28;45760;-79
2022/06/22 03:47:21;;;;;;;;;8.33;7.00;;;;;22.79;44.47;100664.72;4992298;28;46185;-79
2022/06/22 03:50:11;;;;;;;;;7.67;7.67;;;;;22.78;44.01;100658.44;4992954;28;45757;-80
2022/06/22 03:52:44;;;;;;;;;7.67;7.67;;;;;22.79;44.67;100654.69;4991809;28;45506;-79
2022/06/22 03:55:24;;;;;;;;;6.67;6.67;;;;;22.77;44.54;100651.25;4996526;28;45569;-79
2022/06/22 03:57:53;;;;;;;;;6.67;6.67;;;;;22.75;44.90;100651.41;4995991;28;46061;-80
2022/06/22 04:00:20;;;;;;;;;12.00;8.33;;;;;22.57;44.95;100619.72;4996578;28;46082;-79
2022/06/22 04:02:46;;;;;;;;;8.67;6.00;;;;;22.55;45.19;100614.47;4993525;28;45478;-79
2022/06/22 04:05:20;;;;;;;;;3.00;2.00;;;;;22.72;44.86;100645.44;4996176;28;45576;-80
2022/06/22 04:07:46;;;;;;;;;8.67;7.33;;;;;22.34;44.85;100592.94;4980506;28;46251;-79
2022/06/22 04:10:21;;;;;;;;;11.33;8.00;;;;;22.68;45.09;100660.31;4994457;28;45442;-79
2022/06/22 04:12:48;;;;;;;;;7.33;7.00;;;;;22.68;45.58;100663.03;4997947;28;45738;-79
2022/06/22 04:15:36;;;;;;;;;9.00;7.67;;;;;22.65;45.33;100664.19;4993967;28;45581;-79
2022/06/22 04:18:18;;;;;;;;;9.33;7.00;;;;;22.65;45.24;100677.75;5049555;28;47471;-79
2022/06/22 04:20:50;;;;;;;;;8.00;8.00;;;;;22.67;45.09;100674.91;5051628;28;45616;-79
2022/06/22 04:23:37;;;;;;;;;9.67;8.33;;;;;22.57;44.72;100664.06;5051050;28;45472;-79
2022/06/22 04:26:26;;;;;;;;;10.67;9.33;;;;;22.50;45.32;100646.63;5051935;28;45760;-79
2022/06/22 04:29:35;;;;;;;;;7.67;7.67;;;;;22.62;44.66;100672.63;5050704;28;47205;-78
2022/06/22 04:32:12;;;;;;;;;10.00;7.33;;;;;22.36;44.74;100636.22;4992142;28;45550;-79
2022/06/22 04:35:19;;;;;;;;;8.67;8.67;;;;;22.60;45.14;100663.78;4991339;28;45548;-79
2022/06/22 04:37:52;;;;;;;;;7.00;6.67;;;;;22.44;45.07;100630.94;4955689;28;45536;-79
2022/06/22 04:40:33;;;;;;;;;8.33;7.33;;;;;22.33;45.48;100610.22;4950845;28;47252;-78
2022/06/22 04:43:02;;;;;;;;;9.33;9.33;;;;;22.65;45.44;100672.31;4964896;28;45562;-79
2022/06/22 04:45:31;;;;;;;;;11.00;7.00;;;;;22.45;45.09;100657.06;4954595;28;45629;-81
2022/06/22 04:48:04;;;;;;;;;9.00;9.00;;;;;22.62;45.18;100671.78;4950148;28;48285;-80
2022/06/22 04:50:30;;;;;;;;;10.00;8.33;;;;;22.43;45.35;100638.22;4951488;28;46275;-80
2022/06/22 04:52:59;;;;;;;;;11.33;8.33;;;;;22.42;45.10;100641.06;4954408;28;45476;-79
2022/06/22 04:55:27;;;;;;;;;9.67;8.00;;;;;22.33;45.17;100624.63;4961263;28;46599;-79
2022/06/22 04:58:00;;;;;;;;;10.67;7.33;;;;;22.47;45.23;100642.34;4959062;28;45822;-79
2022/06/22 05:00:30;;;;;;;;;9.33;7.33;;;;;22.56;45.38;100656.91;4961038;28;45855;-80
2022/06/22 05:03:03;;;;;;;;;9.00;7.33;;;;;22.59;44.66;100651.16;4955783;28;45509;-79
2022/06/22 05:05:31;;;;;;;;;7.67;7.00;;;;;22.31;44.71;100612.22;4957766;28;45440;-83
2022/06/22 05:07:59;;;;;;;;;9.00;9.00;;;;;22.64;44.64;100661.59;4972422;28;48027;-81
2022/06/22 05:10:37;;;;;;;;;6.67;6.67;;;;;22.34;45.01;100606.50;4993886;28;46389;-81
2022/06/22 05:13:09;;;;;;;;;11.67;9.67;;;;;22.60;44.72;100654.75;4993093;28;45616;-82
2022/06/22 05:15:37;;;;;;;;;9.00;8.00;;;;;22.38;44.76;100609.78;5042604;28;45763;-82
2022/06/22 05:18:09;;;;;;;;;12.00;9.00;;;;;22.55;45.22;100641.63;5052651;28;45858;-84
2022/06/22 05:20:45;;;;;;;;;6.67;6.67;;;;;22.49;44.98;100629.47;5044189;28;45746;-84
2022/06/22 05:23:12;;;;;;;;;10.33;10.33;;;;;22.22;44.93;100592.25;5052675;28;45513;-83
2022/06/22 05:25:40;;;;;;;;;9.33;9.00;;;;;22.68;45.06;100672.03;5048002;28;45497;-83
2022/06/22 05:28:12;;;;;;;;;6.33;6.33;;;;;22.67;45.03;100675.75;5052935;28;46086;-84
2022/06/22 05:30:50;;;;;;;;;9.00;8.67;;;;;21.77;44.72;100525.00;5050148;28;46771;-85
2022/06/22 05:33:22;;;;;;;;;10.33;9.33;;;;;21.39;44.50;100453.50;5052592;28;45560;-84
2022/06/22 05:35:54;;;;;;;;;14.33;9.00;;;;;21.39;44.99;100461.63;5051628;28;45362;-83
2022/06/22 05:38:22;;;;;;;;;9.33;9.33;;;;;21.69;44.73;100495.88;5052621;28;45878;-84
2022/06/22 05:40:50;;;;;;;;;9.67;8.67;;;;;22.30;44.31;100588.78;5052748;28;45864;-83
2022/06/22 05:43:19;;;;;;;;;9.00;9.00;;;;;21.55;45.16;100465.66;5053646;28;45492;-84
2022/06/22 05:45:49;;;;;;;;;7.33;7.33;;;;;22.57;44.81;100645.06;5051895;28;45476;-85
2022/06/22 05:48:45;;;;;;;;;9.33;8.33;;;;;22.80;44.80;100659.13;5041013;28;45572;-87
2022/06/22 05:51:21;;;;;;;;;12.33;9.33;;;;;21.45;44.41;100430.41;5042494;28;47903;-85
2022/06/22 05:54:22;;;;;;;;;12.67;8.33;;;;;22.77;44.38;100659.41;5047173;28;45405;-85
2022/06/22 05:56:57;;;;;;;;;9.00;8.00;;;;;22.80;44.43;100663.69;5043861;28;45618;-84
2022/06/22 05:59:25;;;;;;;;;10.67;8.67;;;;;22.80;45.02;100674.56;5050850;28;45516;-84
2022/06/22 06:02:09;;;;;;;;;11.00;9.00;;;;;22.78;44.57;100666.59;5050550;28;46849;-85
2022/06/22 06:04:53;;;;;;;;;11.33;9.67;;;;;22.37;44.43;100595.34;5043211;28;48729;-86
2022/06/22 06:07:34;;;;;;;;;4.67;4.33;;;;;22.77;44.43;100664.84;5051088;28;45514;-86
2022/06/22 06:10:21;;;;;;;;;9.67;8.67;;;;;21.84;44.84;100517.13;5055378;28;45425;-86
2022/06/22 06:13:29;;;;;;;;;10.33;10.33;;;;;21.33;44.49;100439.66;5053347;28;47358;-85
2022/06/22 06:16:32;;;;;;;;;10.00;10.00;;;;;22.72;44.33;100668.00;5054493;28;45430;-85
2022/06/22 06:19:04;;;;;;;;;12.67;11.67;;;;;21.98;44.94;100561.97;5050840;28;45469;-85
2022/06/22 06:21:37;;;;;;;;;13.33;11.67;;;;;21.61;44.77;100498.47;5050956;28;45432;-85
2022/06/22 06:24:10;;;;;;;;;10.33;10.33;;;;;22.70;44.83;100671.88;5051725;28;46413;-84
2022/06/22 06:30:00;;;;;;;;;9.67;8.00;;;;;22.27;44.86;100613.53;5052617;28;45480;-87
2022/06/22 06:32:39;;;;;;;;;15.00;10.67;;;;;21.71;44.83;100515.59;5056331;28;45529;-85
2022/06/22 06:35:27;;;;;;;;;11.00;10.00;;;;;22.60;45.06;100657.47;5044648;28;46953;-84
2022/06/22 06:37:56;;;;;;;;;11.33;8.33;;;;;22.24;45.01;100595.69;5048422;28;50052;-83
2022/06/22 06:40:56;;;;;;;;;7.00;6.33;;;;;22.38;44.91;100623.34;5049784;28;45413;-83
2022/06/22 06:43:36;;;;;;;;;12.33;10.33;;;;;22.41;45.67;100628.50;5051175;28;45550;-84
2022/06/22 06:46:09;;;;;;;;;12.00;9.67;;;;;22.01;45.65;100562.53;5057966;28;46176;-83
2022/06/22 06:48:36;;;;;;;;;16.33;13.33;;;;;22.27;45.35;100617.09;5054783;28;45484;-83
2022/06/22 06:51:04;;;;;;;;;10.00;9.00;;;;;22.64;45.56;100662.47;5055725;28;45672;-84
2022/06/22 06:53:45;;;;;;;;;10.67;10.67;;;;;22.20;45.22;100607.78;5055585;28;45520;-84
2022/06/22 06:56:24;;;;;;;;;11.00;11.00;;;;;22.68;45.80;100674.75;5054555;28;45755;-84
2022/06/22 06:59:13;;;;;;;;;13.67;11.67;;;;;22.42;45.39;100622.06;5055821;28;45414;-83
2022/06/22 07:01:44;;;;;;;;;15.33;11.33;;;;;22.13;46.04;100565.94;5055732;28;45491;-85
2022/06/22 07:04:16;;;;;;;;;15.33;12.33;;;;;22.46;45.69;100624.34;5057604;28;45571;-86
2022/06/22 07:06:43;;;;;;;;;13.67;12.00;;;;;22.82;45.61;100669.84;5055186;28;46351;-84
2022/06/22 07:09:15;;;;;;;;;11.33;11.33;;;;;22.85;45.55;100674.97;5054345;28;45510;-84
2022/06/22 07:11:46;;;;;;;;;10.67;10.67;;;;;22.88;45.26;100671.97;5052625;28;45615;-85
2022/06/22 07:14:19;;;;;;;;;12.00;12.00;;;;;22.33;45.72;100589.34;5055743;28;45463;-83
2022/06/22 07:16:49;;;;;;;;;11.00;8.00;;;;;22.72;45.48;100638.13;5055307;28;46161;-86
2022/06/22 07:19:36;;;;;;;;;12.00;9.33;;;;;22.93;45.24;100669.66;5057325;28;45403;-86
2022/06/22 07:22:10;;;;;;;;;11.00;8.00;;;;;22.85;45.43;100654.13;5057787;28;45460;-85
2022/06/22 07:24:52;;;;;;;;;8.67;8.67;;;;;22.92;45.21;100666.09;5052978;28;45586;-85
2022/06/22 07:27:39;;;;;;;;;16.33;14.00;;;;;22.94;44.97;100664.09;5054456;28;46283;-87
2022/06/22 07:30:32;;;;;;;;;10.67;10.67;;;;;22.95;45.52;100663.06;5066561;22;45567;-86
2022/06/22 07:33:35;;;;;;;;;10.33;9.00;;;;;22.95;45.31;100663.06;5047719;28;45521;-87
2022/06/22 07:36:23;;;;;;;;;15.33;11.33;;;;;22.95;45.36;100664.94;5043266;28;45629;-89
2022/06/22 07:39:36;;;;;;;;;8.67;8.33;;;;;22.97;45.75;100671.09;5051550;28;46831;-89
2022/06/22 07:46:15;;;;;;;;;15.33;13.67;;;;;22.99;45.58;100676.38;5042608;28;45477;-88
2022/06/22 07:49:27;;;;;;;;;10.00;10.00;;;;;22.99;45.66;100677.25;5044168;28;45468;-87
2022/06/22 08:05:58;;;;;;;;;;;;;;;;;;;;;
2022/06/22 08:12:13;;;;;;;;;12.33;12.33;;;;;22.72;45.20;100602.81;4984749;28;45474;-88
2022/06/22 08:14:46;;;;;;;;;14.67;12.33;;;;;22.47;45.36;100550.00;4900874;28;45521;-93
2022/06/22 08:17:18;;;;;;;;;11.33;11.33;;;;;22.95;44.64;100613.28;4915900;28;46256;-90
2022/06/22 08:19:44;;;;;;;;;16.33;10.00;;;;;23.48;44.84;100696.03;4916576;28;46003;-87
2022/06/22 08:22:12;;;;;;;;;32.00;27.33;;;;;23.25;45.02;100652.06;4916758;28;45525;-91
2022/06/22 08:24:42;;;;;;;;;22.67;18.33;;;;;23.66;44.87;100701.53;4916733;28;45511;-94
2022/06/22 08:27:14;;;;;;;;;18.00;17.33;;;;;23.63;45.00;100683.66;4915997;28;46353;-96
2022/06/22 08:29:40;;;;;;;;;10.67;10.67;;;;;23.74;44.02;100682.59;4925827;28;45773;-96
2022/06/22 08:32:15;;;;;;;;;16.00;12.00;;;;;24.02;43.75;100694.25;4930030;28;45529;-95
2022/06/22 08:34:49;;;;;;;;;14.33;9.00;;;;;24.06;43.44;100652.09;4917139;28;46570;-91
2022/06/22 08:37:28;;;;;;;;;17.33;15.33;;;;;24.60;43.09;100684.72;4954013;28;48039;-87
2022/06/22 08:40:03;;;;;;;;;13.33;9.33;;;;;24.95;41.83;100683.75;4954050;28;45584;-93
2022/06/22 08:42:34;;;;;;;;;13.67;9.67;;;;;25.12;42.01;100673.75;4957037;28;45532;-93
2022/06/22 08:45:18;;;;;;;;;14.67;10.67;;;;;25.31;41.93;100680.03;4998077;28;45386;-95
2022/06/22 08:48:05;;;;;;;;;7.33;7.33;;;;;25.57;41.21;100683.53;5063926;27;47178;-91
2022/06/22 08:50:42;;;;;;;;;7.00;7.00;;;;;25.80;40.91;100688.34;5070982;28;45412;-93
2022/06/22 08:53:44;;;;;;;;;15.00;12.67;;;;;25.85;40.79;100650.50;5072119;27;46569;-92
2022/06/22 08:56:31;;;;;;;;;11.33;10.00;;;;;26.39;40.69;100682.81;5072888;28;45422;-92
2022/06/22 08:59:12;;;;;;;;;14.33;11.67;;;;;26.66;40.16;100679.72;5067607;28;45530;-87
2022/06/22 09:01:55;;;;;;;;;12.00;10.00;;;;;27.01;40.01;100684.94;5051182;28;45478;-91
2022/06/22 09:04:38;;;;;;;;;9.33;9.33;;;;;27.37;38.32;100682.63;5060213;27;45505;-89
2022/06/22 09:07:21;;;;;;;;;9.67;9.33;;;;;27.90;38.06;100678.19;5066889;28;45770;-89
2022/06/22 09:10:10;;;;;;;;;13.00;13.00;;;;;28.53;37.04;100678.06;5062008;27;45907;-87
2022/06/22 09:12:45;;;;;;;;;11.00;9.00;;;;;29.04;35.83;100678.22;5065958;28;45405;-89
2022/06/22 09:15:31;;;;;;;;;11.67;10.00;;;;;29.42;34.40;100678.94;5066243;27;45686;-89
2022/06/22 09:18:13;;;;;;;;;12.67;10.67;;;;;29.60;33.81;100664.81;5064798;28;45543;-89
2022/06/22 09:21:09;;;;;;;;;15.00;11.00;;;;;30.03;34.56;100684.09;5070290;22;46797;-86
2022/06/22 09:23:57;;;;;;;;;9.00;9.00;;;;;30.46;33.93;100670.34;5036028;28;45646;-89
2022/06/22 09:26:55;;;;;;;;;17.33;12.33;;;;;30.45;33.89;100597.13;5031011;28;45448;-85
2022/06/22 09:29:47;;;;;;;;;10.67;9.00;;;;;30.78;32.93;100612.97;5041909;28;45557;-86
2022/06/22 09:32:30;;;;;;;;;8.33;8.33;;;;;31.61;32.99;100680.97;5030232;28;47291;-87
2022/06/22 09:35:12;;;;;;;;;8.00;8.00;;;;;31.39;32.23;100592.09;5034653;28;45600;-86
2022/06/22 09:38:04;;;;;;;;;9.00;9.00;;;;;31.54;31.94;100570.78;5030816;28;46250;-86
2022/06/22 09:40:51;;;;;;;;;8.33;7.67;;;;;32.57;31.38;100673.31;5031155;28;45660;-87
2022/06/22 09:47:36;;;;;;;;;12.00;9.67;;;;;33.29;30.63;100667.00;5103598;22;45658;-91
2022/06/22 09:53:23;;;;;;;;;11.00;10.00;;;;;33.90;28.37;100649.91;4971343;28;45700;-86
2022/06/22 09:58:47;;;;;;;;;11.67;8.33;;;;;34.43;27.88;100660.56;5145719;22;71857;-87
2022/06/22 10:11:11;;;;;;;;;8.67;8.33;;;;;35.34;27.32;100652.63;5662557;22;45780;-87
2022/06/22 10:16:43;;;;;;;;;12.33;9.33;;;;;35.58;27.23;100661.03;5433889;22;45472;-87
2022/06/22 10:19:52;;;;;;;;;11.67;8.67;;;;;35.73;27.09;100664.28;5076827;28;46281;-89
2022/06/22 10:22:42;;;;;;;;;11.33;11.33;;;;;35.86;25.68;100663.22;5076442;28;45471;-86
2022/06/22 10:25:16;;;;;;;;;11.00;10.33;;;;;35.96;26.48;100660.72;5077958;28;45456;-85
2022/06/22 10:31:25;;;;;;;;;10.33;9.00;;;;;35.48;26.94;100662.44;5076446;28;45399;-87
2022/06/22 10:34:11;;;;;;;;;13.00;11.00;;;;;34.92;27.12;100660.75;5072885;28;45405;-89
2022/06/22 10:37:06;;;;;;;;;14.33;12.33;;;;;34.28;27.14;100667.53;5071441;28;46075;-90
2022/06/22 10:40:03;;;;;;;;;15.67;13.33;;;;;33.72;27.93;100664.50;5058734;28;45509;-88
2022/06/22 10:45:56;;;;;;;;;15.33;14.00;;;;;33.07;28.98;100656.25;5070339;28;45456;-89
2022/06/22 10:48:37;;;;;;;;;12.33;12.33;;;;;32.88;29.88;100657.97;5069837;28;45456;-89
2022/06/22 10:51:17;;;;;;;;;12.00;10.00;;;;;32.57;30.13;100629.16;5073115;27;45571;-89
2022/06/22 10:53:45;;;;;;;;;10.33;9.00;;;;;32.54;29.97;100651.66;5063791;28;46313;-89
2022/06/22 10:56:35;;;;;;;;;16.00;16.00;;;;;32.44;30.46;100655.91;5060948;28;45476;-89
2022/06/22 10:59:38;;;;;;;;;9.00;8.67;;;;;32.39;30.77;100649.09;5071990;28;45703;-88
2022/06/22 11:02:41;;;;;;;;;15.33;13.00;;;;;32.33;31.26;100641.66;5072206;27;46881;-89
2022/06/22 11:05:21;;;;;;;;;12.33;10.33;;;;;32.18;30.80;100650.16;5069918;28;46791;-89
2022/06/22 11:07:56;;;;;;;;;10.67;10.67;;;;;31.96;31.56;100649.53;5064815;27;45425;-88
2022/06/22 11:10:32;;;;;;;;;10.33;9.67;;;;;31.86;31.58;100650.94;5056791;28;45510;-88
2022/06/22 11:13:19;;;;;;;;;10.00;8.33;;;;;31.82;32.06;100645.03;5054810;28;45378;-88
2022/06/22 11:16:12;;;;;;;;;10.00;9.00;;;;;31.76;32.09;100651.34;5069237;27;46651;-88
2022/06/22 11:18:56;;;;;;;;;11.33;11.33;;;;;31.69;32.29;100656.84;5069651;27;45548;-88
2022/06/22 11:21:27;;;;;;;;;15.33;13.00;;;;;31.42;32.57;100622.88;5071805;27;45424;-89
2022/06/22 11:24:24;;;;;;;;;10.00;9.00;;;;;31.47;32.83;100653.41;5075181;27;45417;-89
2022/06/22 11:33:15;;;;;;;;;9.33;9.33;;;;;31.36;33.58;100666.88;5066528;28;45419;-88
2022/06/22 11:36:07;;;;;;;;;11.33;10.33;;;;;30.84;33.23;100576.44;5071961;27;45594;-87
2022/06/22 11:38:41;;;;;;;;;12.67;11.33;;;;;31.31;33.65;100662.84;5061526;27;46376;-88
2022/06/22 11:41:26;;;;;;;;;13.00;11.67;;;;;31.01;33.81;100612.72;5074225;27;45318;-89
2022/06/22 11:43:54;;;;;;;;;12.67;12.33;;;;;31.33;33.92;100655.22;5070832;28;45412;-88
2022/06/22 11:46:32;;;;;;;;;10.67;10.00;;;;;31.36;33.74;100645.69;5074549;28;45373;-88
2022/06/22 11:49:19;;;;;;;;;7.67;7.67;;;;;31.30;34.03;100639.13;5077761;28;46803;-88
2022/06/22 11:52:22;;;;;;;;;11.67;10.00;;;;;31.41;33.95;100648.72;5071483;27;45349;-89
2022/06/22 11:54:56;;;;;;;;;9.67;9.67;;;;;31.47;34.34;100638.78;5069463;28;45497;-87
2022/06/22 11:57:33;;;;;;;;;14.67;13.00;;;;;31.54;34.42;100639.66;5068523;28;45578;-85
2022/06/22 12:00:10;;;;;;;;;11.00;11.00;;;;;31.63;34.31;100621.00;5070916;28;46524;-87
2022/06/22 12:02:58;;;;;;;;;3.33;3.33;;;;;31.39;33.82;100564.53;5070608;28;45519;-89
2022/06/22 12:05:49;;;;;;;;;14.00;11.33;;;;;31.69;34.33;100626.53;5070244;28;45617;-88
2022/06/22 12:08:47;;;;;;;;;9.33;9.33;;;;;31.65;35.08;100622.47;5069265;27;45492;-87
2022/06/22 12:15:24;;;;;;;;;9.67;9.67;;;;;30.37;35.70;100501.03;5068566;28;46029;-92
2022/06/22 12:18:20;;;;;;;;;10.00;9.00;;;;;31.11;35.14;100648.13;5066355;28;45364;-91
2022/06/22 12:21:37;;;;;;;;;9.33;9.33;;;;;30.79;35.89;100609.19;5062862;27;45406;-87
2022/06/22 12:24:42;;;;;;;;;10.33;10.00;;;;;30.92;36.01;100642.31;5064289;28;45662;-89
2022/06/22 12:27:31;;;;;;;;;12.00;11.67;;;;;30.78;35.96;100653.41;5049644;28;45490;-89
2022/06/22 12:30:22;;;;;;;;;10.67;10.33;;;;;30.60;36.21;100654.78;5070813;28;45901;-89
2022/06/22 12:33:03;;;;;;;;;10.33;10.33;;;;;29.95;36.65;100589.94;5070920;27;45571;-91
2022/06/22 12:35:48;;;;;;;;;9.00;9.00;;;;;30.16;37.20;100636.66;5050862;28;47835;-90
2022/06/22 12:38:36;;;;;;;;;8.00;8.00;;;;;30.31;36.85;100663.22;5069928;28;45615;-92
2022/06/22 12:41:46;;;;;;;;;12.00;12.00;;;;;29.76;36.59;100595.06;5068077;28;45452;-91
2022/06/22 12:44:41;;;;;;;;;11.00;9.33;;;;;29.83;37.47;100633.59;5069825;27;45869;-91
2022/06/22 12:47:41;;;;;;;;;9.33;8.33;;;;;29.93;37.51;100652.50;5052182;28;47638;-91
2022/06/22 12:50:34;;;;;;;;;7.67;7.67;;;;;29.98;37.57;100661.84;5111638;22;45563;-91
2022/06/22 12:53:08;;;;;;;;;10.33;10.33;;;;;29.01;38.26;100498.31;5023235;28;46012;-90
2022/06/22 12:55:44;;;;;;;;;8.00;8.00;;;;;28.82;38.85;100465.97;4999199;28;45610;-91
2022/06/22 12:58:27;;;;;;;;;8.33;8.00;;;;;29.78;37.84;100611.31;5016921;28;47137;-90
2022/06/22 13:00:57;;;;;;;;;9.33;9.00;;;;;29.27;37.68;100539.97;5017299;28;45667;-90
2022/06/22 13:03:27;;;;;;;;;9.67;8.33;;;;;29.60;38.17;100587.88;5017039;28;45491;-90
2022/06/22 13:05:52;;;;;;;;;9.00;7.67;;;;;28.84;37.98;100485.84;5000929;28;45470;-90
2022/06/22 13:08:21;;;;;;;;;12.33;10.00;;;;;29.08;38.11;100530.47;5022929;28;47162;-90
2022/06/22 13:10:52;;;;;;;;;13.67;10.00;;;;;29.74;38.48;100651.25;5002348;28;46070;-91
2022/06/22 13:13:34;;;;;;;;;10.33;10.33;;;;;29.08;38.63;100556.06;5021578;28;45568;-89
2022/06/22 13:16:24;;;;;;;;;8.00;8.00;;;;;29.63;38.74;100639.69;5022115;28;45560;-90
2022/06/22 13:18:52;;;;;;;;;15.67;13.00;;;;;29.64;38.63;100643.28;5019970;28;46538;-89
2022/06/22 13:21:20;;;;;;;;;12.00;10.67;;;;;29.61;39.08;100627.19;5026074;28;45489;-89
2022/06/22 13:24:04;;;;;;;;;12.67;10.33;;;;;29.62;38.81;100634.41;5016774;28;45474;-89
2022/06/22 13:27:00;;;;;;;;;18.00;16.67;;;;;29.46;39.11;100622.59;5022208;28;45472;-90